Terminal Aerodrome Forecast
Issued by NWS Quad Cities IA IL

Home | Current Version | Previous Version | Text Only | Print | Product List | Glossary On
Versions: 1 2 3 4 5 6 7 8 9 10 11 12 13 14 15 16 17 18 19 20
412
FTUS43 KDVN 221138
TAFMLI
TAF
KMLI 221138Z 2212/2312 19010KT P6SM VCTS FEW018 SCT040CB BKN100
     FM221500 23009KT P6SM SCT025 BKN070
     FM221800 32007KT P6SM BKN080
     FM230000 02006KT P6SM BKN080
     FM230700 VRB03KT 3SM BR SCT004 BKN035=

USA.gov is the U.S. government's official web portal to all federal, state and local government web resources and services.